Time;durP1;ratioP1;P1;durP2;ratioP2;P2;SDS_P1;SDS_P2;PMS_P1;PMS_P2;Temp;Humidity;BMP_temperature;BMP_pressure;BME280_temperature;BME280_humidity;BME280_pressure;Samples;Min_cycle;Max_cycle;Signal;HPM_P1;HPM_P2
2023/05/27 00:01:03;;;;;;;6.40;2.30;;;;;;;19.22;56.80;101219.47;5037091;28;20451;-79
2023/05/27 00:03:28;;;;;;;8.33;2.43;;;;;;;19.21;57.15;101237.47;5036815;28;20386;-80
2023/05/27 00:05:54;;;;;;;8.82;2.50;;;;;;;19.07;57.84;101236.72;5037083;28;20382;-79
2023/05/27 00:08:20;;;;;;;9.23;2.47;;;;;;;19.01;58.14;101242.09;5036881;28;20466;-81
2023/05/27 00:10:46;;;;;;;14.75;3.03;;;;;;;18.97;58.50;101227.44;5036523;28;20443;-80
2023/05/27 00:13:12;;;;;;;7.63;2.30;;;;;;;18.96;58.69;101228.47;5036025;28;20414;-80
2023/05/27 00:15:40;;;;;;;8.13;2.90;;;;;;;18.90;58.77;101236.34;5037099;28;20802;-81
2023/05/27 00:18:06;;;;;;;9.52;2.90;;;;;;;18.84;58.80;101234.53;5036974;28;20382;-80
2023/05/27 00:20:32;;;;;;;8.65;3.20;;;;;;;18.93;58.94;101242.34;5036968;28;20381;-80
2023/05/27 00:22:59;;;;;;;11.80;3.33;;;;;;;18.95;58.83;101242.97;5036926;28;20497;-80
2023/05/27 00:25:26;;;;;;;9.85;2.80;;;;;;;19.00;58.82;101249.34;5035445;28;20747;-80
2023/05/27 00:27:51;;;;;;;11.02;3.55;;;;;;;19.03;58.74;101245.41;5037060;28;20509;-81
2023/05/27 00:30:16;;;;;;;9.73;3.45;;;;;;;19.01;58.73;101236.72;5036780;28;20402;-80
2023/05/27 00:32:42;;;;;;;8.47;2.87;;;;;;;19.12;58.60;101221.78;5036851;28;20393;-80
2023/05/27 00:35:08;;;;;;;10.68;3.30;;;;;;;19.12;58.53;101221.78;5036862;28;20417;-80
2023/05/27 00:37:34;;;;;;;10.38;3.35;;;;;;;19.18;58.40;101221.78;5036701;28;20738;-80
2023/05/27 00:39:59;;;;;;;8.73;2.73;;;;;;;19.29;58.19;101231.03;5036949;28;20946;-79
2023/05/27 00:42:25;;;;;;;7.00;2.63;;;;;;;19.25;58.33;101222.56;5036519;28;20465;-80
2023/05/27 00:44:50;;;;;;;10.87;2.97;;;;;;;19.35;58.25;101232.03;5034937;28;20414;-80
2023/05/27 00:47:16;;;;;;;8.65;2.83;;;;;;;19.40;58.07;101233.00;5036614;28;20374;-80
2023/05/27 00:49:43;;;;;;;6.33;2.33;;;;;;;19.44;58.15;101247.66;5036495;28;20399;-80
2023/05/27 00:52:09;;;;;;;7.05;2.65;;;;;;;19.40;58.20;101235.69;5036470;28;20393;-80
2023/05/27 00:54:35;;;;;;;6.90;2.42;;;;;;;19.40;58.25;101235.69;5036950;28;20374;-80
2023/05/27 00:57:02;;;;;;;7.85;2.33;;;;;;;19.47;58.21;101233.00;5037791;28;20401;-81
2023/05/27 00:59:28;;;;;;;6.88;2.20;;;;;;;19.43;58.29;101219.16;5043822;28;20922;-80
2023/05/27 01:01:53;;;;;;;6.50;2.60;;;;;;;19.42;58.14;101216.69;5038907;28;20415;-81
2023/05/27 01:04:20;;;;;;;4.53;2.13;;;;;;;19.39;58.40;101222.47;5037836;28;20467;-80
2023/05/27 01:07:24;;;;;;;9.05;2.60;;;;;;;19.40;58.56;101226.81;5037392;28;20379;-80
2023/05/27 01:10:19;;;;;;;7.00;2.45;;;;;;;19.44;58.37;101219.97;5032286;28;20402;-80
2023/05/27 01:13:06;;;;;;;9.70;2.75;;;;;;;19.40;58.08;101208.00;5035420;28;20390;-80
2023/05/27 01:15:33;;;;;;;9.60;2.72;;;;;;;19.92;62.28;101210.56;5036472;28;20390;-79
2023/05/27 01:18:03;;;;;;;9.77;2.60;;;;;;;20.38;63.21;101210.13;5037369;28;20800;-79
2023/05/27 01:20:29;;;;;;;7.97;2.20;;;;;;;20.31;60.46;101193.22;5037998;28;20370;-80
2023/05/27 01:22:57;;;;;;;7.70;2.40;;;;;;;20.00;59.10;101192.25;5036685;28;20458;-80
2023/05/27 01:25:23;;;;;;;7.53;2.72;;;;;;;19.78;58.74;101199.91;5037941;28;20398;-81
2023/05/27 01:27:50;;;;;;;9.55;2.78;;;;;;;19.66;58.61;101183.63;5038088;28;20367;-81
2023/05/27 01:30:16;;;;;;;7.70;2.60;;;;;;;19.62;58.29;101195.03;5038140;28;20820;-81
2023/05/27 01:33:06;;;;;;;7.45;2.72;;;;;;;19.44;58.37;101201.16;5038214;28;20394;-81
2023/05/27 01:35:58;;;;;;;7.23;2.73;;;;;;;19.46;58.30;101205.28;5038006;28;20369;-81
2023/05/27 01:38:26;;;;;;;9.40;2.92;;;;;;;19.39;58.22;101204.50;5042528;28;20398;-80
2023/05/27 01:40:53;;;;;;;9.27;2.75;;;;;;;19.34;58.21;101190.88;5055715;28;20369;-80
2023/05/27 01:43:19;;;;;;;8.63;2.90;;;;;;;19.25;58.34;101184.94;5036697;28;20464;-80
2023/05/27 01:45:45;;;;;;;9.05;2.70;;;;;;;19.21;58.37;101188.25;5033186;28;20878;-80
2023/05/27 01:48:11;;;;;;;10.02;3.15;;;;;;;19.11;58.47;101194.09;5034953;28;20397;-80
2023/05/27 01:50:36;;;;;;;10.93;3.73;;;;;;;18.98;58.94;101197.69;5033749;28;20489;-80
2023/05/27 01:53:03;;;;;;;9.80;3.00;;;;;;;18.86;59.15;101196.72;5032620;28;20390;-79
2023/05/27 01:55:30;;;;;;;10.30;3.10;;;;;;;18.97;58.90;101197.91;5033392;28;20394;-80
2023/05/27 01:57:55;;;;;;;9.43;3.35;;;;;;;18.94;58.81;101191.06;5034684;28;20463;-80
2023/05/27 02:00:21;;;;;;;10.32;3.38;;;;;;;18.88;58.88;101200.00;5033922;28;20374;-80
2023/05/27 02:02:46;;;;;;;10.13;3.27;;;;;;;18.83;58.90;101206.00;5035705;28;20709;-79
2023/05/27 02:05:12;;;;;;;10.73;3.53;;;;;;;18.78;58.92;101207.66;5034962;28;20374;-80
2023/05/27 02:07:38;;;;;;;11.23;3.70;;;;;;;18.65;59.50;101206.66;5035368;28;20429;-81
2023/05/27 02:10:04;;;;;;;8.35;3.50;;;;;;;18.72;59.18;101198.56;5034589;28;20886;-80
2023/05/27 02:12:30;;;;;;;12.05;3.33;;;;;;;18.70;59.04;101201.47;5035139;28;20378;-80
2023/05/27 02:14:55;;;;;;;13.70;3.77;;;;;;;18.48;59.59;101192.88;5034194;28;20416;-79
2023/05/27 02:17:21;;;;;;;9.00;3.40;;;;;;;18.37;59.96;101190.84;5034529;28;20480;-80
2023/05/27 02:19:47;;;;;;;13.57;3.60;;;;;;;18.35;60.23;101195.59;5033450;28;20390;-80
2023/05/27 02:22:13;;;;;;;9.55;3.42;;;;;;;18.27;60.21;101196.63;5034506;28;20390;-80
2023/05/27 02:24:38;;;;;;;13.45;3.40;;;;;;;18.36;60.12;101188.38;5034734;28;20448;-80
2023/05/27 02:27:05;;;;;;;15.70;3.60;;;;;;;18.37;59.91;101192.72;5034694;28;20386;-80
2023/05/27 02:29:31;;;;;;;9.05;3.50;;;;;;;18.30;59.86;101193.53;5034118;28;20430;-79
2023/05/27 02:31:56;;;;;;;11.40;3.63;;;;;;;18.18;60.44;101192.50;5033695;28;20398;-79
2023/05/27 02:34:21;;;;;;;10.87;3.50;;;;;;;18.07;60.86;101191.28;5033831;28;20894;-80
2023/05/27 02:36:47;;;;;;;13.00;3.78;;;;;;;17.95;61.29;101196.47;5034195;28;20394;-80
2023/05/27 02:39:12;;;;;;;10.43;3.40;;;;;;;17.84;61.62;101199.72;5033494;28;20405;-79
2023/05/27 02:41:38;;;;;;;14.83;3.70;;;;;;;17.72;61.98;101198.72;5033689;28;20408;-79
2023/05/27 02:44:05;;;;;;;9.80;3.43;;;;;;;17.63;62.05;101190.03;5034656;28;20386;-80
2023/05/27 02:46:31;;;;;;;10.95;3.63;;;;;;;17.55;62.42;101198.25;5034451;28;20386;-78
2023/05/27 02:48:56;;;;;;;9.85;3.38;;;;;;;17.41;62.63;101193.91;5033891;28;20402;-80
2023/05/27 02:51:22;;;;;;;10.57;4.20;;;;;;;17.36;62.79;101192.69;5033221;28;20394;-81
2023/05/27 02:53:48;;;;;;;11.73;3.72;;;;;;;17.34;62.76;101194.75;5036163;28;20370;-81
2023/05/27 02:56:13;;;;;;;10.35;3.70;;;;;;;17.25;63.02;101193.28;5034113;28;20410;-81
2023/05/27 02:58:39;;;;;;;8.70;3.50;;;;;;;17.20;63.25;101190.38;5034607;28;20394;-81
2023/05/27 03:01:04;;;;;;;12.18;4.35;;;;;;;17.16;63.49;101183.75;5034698;28;20842;-82
2023/05/27 03:03:30;;;;;;;6.57;3.47;;;;;;;17.10;63.46;101181.88;5035111;28;20398;-82
2023/05/27 03:05:56;;;;;;;14.15;4.28;;;;;;;17.06;63.44;101183.31;5034483;28;20379;-81
2023/05/27 03:08:21;;;;;;;11.40;4.00;;;;;;;17.12;63.41;101186.00;5034629;28;20389;-81
2023/05/27 03:10:47;;;;;;;12.13;4.17;;;;;;;17.15;63.28;101184.78;5037663;28;20379;-82
2023/05/27 03:13:13;;;;;;;10.43;3.75;;;;;;;17.13;63.24;101187.66;5037231;28;20405;-82
2023/05/27 03:15:39;;;;;;;11.68;3.53;;;;;;;16.96;63.81;101189.91;5034571;28;20382;-79
2023/05/27 03:18:05;;;;;;;8.02;3.67;;;;;;;16.83;64.21;101189.81;5034593;28;20432;-82
2023/05/27 03:20:30;;;;;;;10.27;4.43;;;;;;;16.84;64.14;101185.31;5035215;28;20685;-81
2023/05/27 03:22:56;;;;;;;8.80;3.90;;;;;;;16.86;64.22;101189.44;5033388;28;20746;-81
2023/05/27 03:25:21;;;;;;;9.07;4.10;;;;;;;16.92;63.92;101182.44;5034015;28;20858;-81
2023/05/27 03:27:47;;;;;;;8.43;3.40;;;;;;;17.02;63.40;101185.59;5033934;28;20474;-81
2023/05/27 03:30:13;;;;;;;7.93;3.92;;;;;;;17.16;63.24;101179.22;5033718;28;20486;-79
2023/05/27 03:32:38;;;;;;;9.30;3.87;;;;;;;17.31;62.77;101181.72;5032912;28;20501;-79
2023/05/27 03:35:04;;;;;;;7.30;3.73;;;;;;;17.45;62.42;101184.44;5033009;28;20378;-80
2023/05/27 03:37:29;;;;;;;12.50;4.10;;;;;;;17.36;62.49;101181.97;5032631;28;20405;-79
2023/05/27 03:39:55;;;;;;;11.37;4.17;;;;;;;17.46;62.12;101188.78;5032603;28;20378;-80
2023/05/27 03:42:21;;;;;;;14.73;4.70;;;;;;;17.43;62.41;101181.97;5031769;28;20487;-79
2023/05/27 03:44:46;;;;;;;7.73;3.87;;;;;;;17.56;62.27;101183.84;5031609;28;20411;-80
2023/05/27 03:47:12;;;;;;;11.27;4.00;;;;;;;17.56;62.33;101184.66;5031688;28;20386;-80
2023/05/27 03:49:37;;;;;;;9.67;4.13;;;;;;;17.68;62.12;101189.41;5031713;28;20401;-81
2023/05/27 03:52:03;;;;;;;10.27;4.43;;;;;;;17.74;61.94;101181.38;5031347;28;20374;-80
2023/05/27 03:54:29;;;;;;;9.40;4.10;;;;;;;17.83;61.80;101191.91;5031938;28;20407;-81
2023/05/27 03:56:54;;;;;;;6.37;3.80;;;;;;;17.84;61.63;101180.13;5032787;28;20389;-81
2023/05/27 03:59:20;;;;;;;8.30;4.50;;;;;;;17.86;61.89;101191.50;5046734;28;20382;-81
2023/05/27 04:01:46;;;;;;;9.23;4.40;;;;;;;17.92;61.77;101190.69;5028683;28;20405;-81
2023/05/27 04:04:13;;;;;;;10.10;4.47;;;;;;;17.83;61.96;101181.19;5030530;28;20374;-80
2023/05/27 04:06:38;;;;;;;8.30;5.05;;;;;;;17.92;61.71;101190.69;5031342;28;20858;-81
2023/05/27 04:09:04;;;;;;;9.38;4.30;;;;;;;17.90;61.78;101184.72;5030664;28;20402;-80
2023/05/27 04:11:30;;;;;;;9.10;4.30;;;;;;;17.89;61.50;101175.81;5031442;28;20378;-81
2023/05/27 04:13:55;;;;;;;11.95;4.55;;;;;;;17.77;61.89;101174.75;5030158;28;20410;-80
2023/05/27 04:16:21;;;;;;;8.73;4.43;;;;;;;17.88;61.40;101176.88;5031167;28;20397;-81
2023/05/27 04:18:48;;;;;;;13.27;4.80;;;;;;;17.94;61.53;101181.41;5031613;28;20389;-80
2023/05/27 04:21:17;;;;;;;11.07;5.18;;;;;;;18.00;61.31;101168.19;5034223;28;20378;-80
2023/05/27 04:23:43;;;;;;;13.73;5.18;;;;;;;18.05;61.21;101166.53;5036136;28;20457;-79
2023/05/27 04:26:09;;;;;;;9.07;4.43;;;;;;;18.05;61.47;101171.09;5039287;28;20823;-80
2023/05/27 04:28:35;;;;;;;9.73;4.37;;;;;;;18.24;60.87;101162.19;5037095;28;20374;-80
2023/05/27 04:31:01;;;;;;;7.45;4.22;;;;;;;18.34;60.98;101159.03;5036076;28;20375;-80
2023/05/27 04:33:26;;;;;;;9.20;4.57;;;;;;;18.47;60.76;101163.53;5035498;28;20382;-80
2023/05/27 04:35:53;;;;;;;10.33;4.50;;;;;;;18.60;60.58;101160.84;5034699;28;20433;-81
2023/05/27 04:38:22;;;;;;;8.40;4.50;;;;;;;18.80;60.05;101167.97;5042245;28;20392;-79
2023/05/27 04:40:52;;;;;;;7.85;3.97;;;;;;;19.01;59.68;101166.88;5030075;28;20390;-79
2023/05/27 04:43:22;;;;;;;11.02;4.13;;;;;;;19.11;59.26;101175.31;5035430;28;20375;-79
2023/05/27 04:45:48;;;;;;;8.10;4.28;;;;;;;19.12;59.32;101174.25;5041704;28;20461;-80
2023/05/27 04:48:15;;;;;;;9.02;4.40;;;;;;;19.35;58.91;101173.69;5036501;28;20480;-81
2023/05/27 04:50:41;;;;;;;6.72;4.25;;;;;;;19.50;58.69;101181.47;5035480;28;20464;-80
2023/05/27 04:53:07;;;;;;;7.45;4.15;;;;;;;19.60;58.53;101171.03;5035375;28;20392;-79
2023/05/27 04:55:33;;;;;;;7.90;3.95;;;;;;;19.73;58.26;101178.19;5051827;28;20380;-80
2023/05/27 04:58:03;;;;;;;10.90;4.30;;;;;;;19.67;58.10;101179.06;5040199;28;20404;-81
2023/05/27 05:03:20;;;;;;;7.70;4.28;;;;;;;19.82;57.95;101182.25;5038379;28;20456;-79
2023/05/27 05:05:56;;;;;;;10.70;4.40;;;;;;;19.84;57.91;101173.97;5037058;28;20441;-80
2023/05/27 05:08:22;;;;;;;11.88;4.70;;;;;;;19.98;57.62;101188.97;5034675;28;21018;-79
2023/05/27 05:10:48;;;;;;;10.35;4.80;;;;;;;20.11;57.40;101185.31;5035297;28;20406;-80
2023/05/27 05:13:15;;;;;;;9.65;4.60;;;;;;;20.40;56.73;101191.88;5034971;28;20443;-80
2023/05/27 05:15:43;;;;;;;7.15;4.35;;;;;;;20.47;56.47;101182.88;5045428;28;20470;-80
2023/05/27 05:18:10;;;;;;;10.47;4.70;;;;;;;20.31;56.82;101181.59;5039519;28;20382;-79
2023/05/27 05:20:35;;;;;;;10.85;4.40;;;;;;;20.25;56.86;101183.31;5045965;28;20400;-79
2023/05/27 05:23:01;;;;;;;9.35;4.78;;;;;;;20.39;56.73;101184.84;5038011;28;20381;-79
2023/05/27 05:25:27;;;;;;;9.17;4.47;;;;;;;20.53;56.26;101182.00;5043319;28;20797;-79
2023/05/27 05:27:53;;;;;;;14.57;4.55;;;;;;;20.66;56.27;101187.25;5053677;28;20403;-80
2023/05/27 05:30:19;;;;;;;11.32;4.50;;;;;;;20.65;56.20;101187.47;5037952;28;20406;-79
2023/05/27 05:32:45;;;;;;;10.07;4.90;;;;;;;20.76;55.80;101186.72;5038684;28;20743;-80
2023/05/27 05:35:10;;;;;;;9.30;4.57;;;;;;;20.72;56.19;101177.44;5040695;28;20396;-79
2023/05/27 05:37:36;;;;;;;8.93;4.60;;;;;;;20.76;56.04;101176.78;5048960;28;20384;-83
2023/05/27 05:40:01;;;;;;;8.63;4.60;;;;;;;20.79;55.86;101179.00;5039006;28;20812;-81
2023/05/27 05:42:27;;;;;;;8.85;5.13;;;;;;;20.94;56.01;101178.63;5032694;28;20440;-81
2023/05/27 05:44:52;;;;;;;10.50;4.80;;;;;;;21.10;55.57;101179.03;5034405;28;20394;-80
2023/05/27 05:47:19;;;;;;;9.18;5.15;;;;;;;21.04;55.47;101190.72;5052409;28;20391;-80
2023/05/27 05:49:44;;;;;;;10.15;4.80;;;;;;;21.07;55.31;101195.66;5053005;28;20416;-79
2023/05/27 05:52:10;;;;;;;10.43;4.30;;;;;;;21.30;55.05;101195.75;5038295;28;20870;-81
2023/05/27 05:54:35;;;;;;;7.40;4.20;;;;;;;21.57;54.87;101200.75;5032680;28;20863;-81
2023/05/27 05:57:02;;;;;;;8.97;4.43;;;;;;;21.72;54.15;101201.16;5042517;28;20481;-79
2023/05/27 05:59:28;;;;;;;7.15;4.15;;;;;;;22.00;53.96;101198.84;5034009;28;20839;-80
2023/05/27 06:01:53;;;;;;;6.57;3.87;;;;;;;22.14;53.37;101211.03;5036660;28;20475;-79
2023/05/27 06:04:19;;;;;;;9.48;4.55;;;;;;;22.09;53.21;101208.22;5032710;28;20389;-81
2023/05/27 06:06:44;;;;;;;9.50;4.13;;;;;;;22.25;52.97;101212.91;5037852;28;20889;-79
2023/05/27 06:09:10;;;;;;;7.67;4.00;;;;;;;22.12;52.67;101219.38;5039631;28;20488;-80
2023/05/27 06:11:35;;;;;;;7.63;4.15;;;;;;;22.15;53.11;101213.50;5062540;28;20397;-80
2023/05/27 06:14:01;;;;;;;8.00;4.03;;;;;;;22.20;52.61;101220.91;5040691;28;20416;-81
2023/05/27 06:16:28;;;;;;;9.20;3.97;;;;;;;22.18;52.02;101220.31;5039385;28;20385;-80
2023/05/27 06:18:53;;;;;;;7.37;3.80;;;;;;;22.19;52.05;101213.88;5033788;28;20469;-81
2023/05/27 06:21:19;;;;;;;7.90;3.90;;;;;;;22.38;51.77;101221.88;5037160;28;20490;-80
2023/05/27 06:23:44;;;;;;;7.60;3.93;;;;;;;22.39;51.31;101220.81;5044185;28;20399;-79
2023/05/27 06:26:09;;;;;;;8.67;4.07;;;;;;;22.61;51.58;101224.53;5036990;28;20394;-79
2023/05/27 06:28:35;;;;;;;9.20;4.50;;;;;;;22.71;51.24;101235.56;5033779;28;20402;-81
2023/05/27 06:31:00;;;;;;;7.43;4.47;;;;;;;22.56;50.91;101213.59;5028661;28;20402;-80
2023/05/27 06:33:26;;;;;;;8.43;4.17;;;;;;;22.35;51.88;101228.56;5029287;28;20739;-80
2023/05/27 06:35:51;;;;;;;9.10;4.13;;;;;;;22.47;51.53;101223.13;5032855;28;20420;-80
2023/05/27 06:38:17;;;;;;;6.95;3.60;;;;;;;22.54;51.16;101231.94;5023104;28;20392;-81
2023/05/27 06:40:42;;;;;;;7.87;3.87;;;;;;;22.46;51.36;101237.72;5045124;28;20853;-81
2023/05/27 06:43:08;;;;;;;6.53;3.70;;;;;;;22.52;51.42;101231.38;5051783;28;20390;-80
2023/05/27 06:45:33;;;;;;;7.90;3.85;;;;;;;22.77;51.23;101233.78;5054894;28;20476;-80
2023/05/27 06:47:59;;;;;;;9.03;4.20;;;;;;;22.95;50.49;101223.88;5045297;28;20405;-80
2023/05/27 06:50:24;;;;;;;7.13;4.17;;;;;;;22.96;50.37;101228.19;5041299;28;20887;-79
2023/05/27 06:52:50;;;;;;;8.10;4.20;;;;;;;22.73;50.60;101227.22;5041609;28;20398;-79
2023/05/27 06:55:15;;;;;;;7.50;3.83;;;;;;;22.75;50.57;101222.41;5056672;28;20393;-80
2023/05/27 06:57:41;;;;;;;7.17;4.20;;;;;;;22.90;50.28;101222.72;5057733;28;20418;-79
2023/05/27 07:00:08;;;;;;;8.60;4.13;;;;;;;23.20;49.50;101231.69;5037666;28;20386;-81
2023/05/27 07:02:34;;;;;;;7.80;3.97;;;;;;;23.34;49.70;101227.63;5035317;28;20385;-80
2023/05/27 07:04:59;;;;;;;7.50;4.18;;;;;;;23.36;49.06;101230.91;5051452;28;20396;-79
2023/05/27 07:07:25;;;;;;;7.10;3.95;;;;;;;23.63;48.43;101219.47;5044723;28;20872;-81
2023/05/27 07:09:50;;;;;;;10.53;4.60;;;;;;;23.90;48.39;101221.56;5031236;28;20411;-79
2023/05/27 07:12:16;;;;;;;6.83;3.80;;;;;;;23.91;48.14;101218.59;5042595;28;20892;-80
2023/05/27 07:14:41;;;;;;;8.85;3.92;;;;;;;23.65;48.15;101218.16;5046681;28;20489;-79
2023/05/27 07:17:07;;;;;;;9.27;3.93;;;;;;;23.90;47.59;101227.78;5036483;28;20389;-80
2023/05/27 07:19:32;;;;;;;7.97;4.17;;;;;;;24.15;47.75;101218.44;5032821;28;20463;-79
2023/05/27 07:21:57;;;;;;;8.40;4.13;;;;;;;24.27;47.07;101216.41;5038624;28;20379;-80
2023/05/27 07:24:23;;;;;;;10.23;4.22;;;;;;;24.30;46.86;101215.09;5032952;28;20913;-80
2023/05/27 07:26:48;;;;;;;10.97;4.27;;;;;;;24.10;46.71;101216.44;5033363;28;20394;-80
2023/05/27 07:29:14;;;;;;;10.57;3.90;;;;;;;23.91;47.21;101215.88;5039157;28;20404;-81
2023/05/27 07:31:39;;;;;;;11.13;5.30;;;;;;;24.16;47.88;101214.63;5040070;28;20394;-81
2023/05/27 07:34:05;;;;;;;10.60;4.45;;;;;;;24.37;46.93;101216.56;5058787;28;20539;-81
2023/05/27 07:36:31;;;;;;;15.90;4.50;;;;;;;24.47;46.75;101215.91;5038902;28;20382;-79
2023/05/27 07:38:56;;;;;;;11.07;4.13;;;;;;;24.59;46.30;101211.19;5042104;28;20861;-80
2023/05/27 07:41:22;;;;;;;10.23;4.57;;;;;;;24.39;46.93;101219.84;5034803;28;20382;-79
2023/05/27 07:43:48;;;;;;;9.20;4.13;;;;;;;24.39;46.95;101219.03;5032915;28;20424;-81
2023/05/27 07:46:13;;;;;;;11.80;4.07;;;;;;;24.43;46.83;101207.44;5037198;28;20386;-79
2023/05/27 07:48:39;;;;;;;13.03;4.57;;;;;;;24.35;46.53;101205.16;5031144;28;20393;-78
2023/05/27 07:51:05;;;;;;;10.45;4.32;;;;;;;24.48;46.48;101208.56;5029464;28;20396;-79
2023/05/27 07:53:30;;;;;;;9.67;4.10;;;;;;;24.39;46.70;101210.91;5039892;28;20874;-79
2023/05/27 07:55:56;;;;;;;10.63;4.50;;;;;;;24.44;46.57;101208.25;5036618;28;20732;-79
2023/05/27 07:58:21;;;;;;;13.53;4.73;;;;;;;24.52;46.54;101204.28;5047950;28;20396;-79
2023/05/27 08:00:46;;;;;;;10.70;4.60;;;;;;;24.78;46.45;101206.28;5036556;28;20868;-79
2023/05/27 08:03:12;;;;;;;7.10;4.00;;;;;;;25.07;46.18;101205.25;5029230;28;20428;-78
2023/05/27 08:05:37;;;;;;;9.30;3.90;;;;;;;24.67;45.84;101201.81;5037920;28;20410;-78
2023/05/27 08:08:03;;;;;;;8.93;4.13;;;;;;;24.43;46.46;101204.75;5046937;28;20396;-78
2023/05/27 08:10:28;;;;;;;10.67;4.30;;;;;;;24.71;46.46;101200.22;5033776;28;20491;-80
2023/05/27 08:12:54;;;;;;;12.10;4.57;;;;;;;24.84;46.30;101206.34;5054409;28;20404;-80
2023/05/27 08:15:20;;;;;;;9.13;4.32;;;;;;;25.00;46.03;101213.56;5038033;28;20480;-83
2023/05/27 08:17:45;;;;;;;11.73;4.73;;;;;;;25.10;45.73;101207.44;5026003;28;20392;-80
2023/05/27 08:20:12;;;;;;;12.15;4.40;;;;;;;24.82;46.26;101205.78;5056754;28;20886;-80
2023/05/27 08:22:37;;;;;;;10.95;4.30;;;;;;;24.98;46.22;101194.03;5025890;28;20416;-79
2023/05/27 08:25:04;;;;;;;10.90;4.03;;;;;;;24.67;46.38;101217.25;5021575;28;20414;-78
2023/05/27 08:28:01;;;;;;;9.10;4.20;;;;;;;24.59;46.96;101207.66;5033874;28;20387;-79
2023/05/27 08:30:27;;;;;;;12.20;4.60;;;;;;;24.78;46.98;101210.88;5033512;28;20469;-82
2023/05/27 08:32:53;;;;;;;15.40;4.78;;;;;;;25.13;46.77;101202.31;5023598;28;20906;-78
2023/05/27 08:35:19;;;;;;;9.50;4.30;;;;;;;25.49;46.19;101202.69;5033346;28;20393;-79
2023/05/27 08:37:44;;;;;;;10.68;5.18;;;;;;;25.73;46.42;101199.63;5035932;28;20722;-78
2023/05/27 08:40:14;;;;;;;12.90;4.43;;;;;;;25.88;45.82;101198.94;5040540;28;20392;-79
2023/05/27 08:42:40;;;;;;;9.33;4.50;;;;;;;25.95;45.43;101210.41;5031525;28;20397;-79
2023/05/27 08:45:07;;;;;;;13.27;5.05;;;;;;;26.02;45.17;101207.47;5040769;28;20390;-78
2023/05/27 08:47:32;;;;;;;7.25;4.32;;;;;;;25.89;45.00;101198.69;5039579;28;20896;-78
2023/05/27 08:49:58;;;;;;;11.70;4.60;;;;;;;26.10;45.18;101193.41;5032786;28;20461;-78
2023/05/27 08:52:27;;;;;;;8.98;4.50;;;;;;;26.41;44.17;101199.81;5035801;28;20411;-79
2023/05/27 08:54:54;;;;;;;8.15;4.00;;;;;;;26.04;43.99;101195.28;5039071;28;20462;-79
2023/05/27 08:57:23;;;;;;;6.35;3.70;;;;;;;25.71;44.12;101199.06;5043612;28;20390;-79
2023/05/27 08:59:52;;;;;;;7.72;4.25;;;;;;;25.63;44.42;101194.13;5039388;28;20393;-79
2023/05/27 09:02:20;;;;;;;7.07;3.97;;;;;;;25.68;44.55;101199.59;5032621;28;20487;-77
2023/05/27 09:04:46;;;;;;;6.32;3.97;;;;;;;26.06;44.10;101197.72;5039051;28;20462;-79
2023/05/27 09:07:12;;;;;;;9.43;4.33;;;;;;;25.74;43.88;101190.41;5028817;28;20493;-79
2023/05/27 09:09:38;;;;;;;11.57;4.70;;;;;;;25.63;44.59;101191.41;5035876;28;20408;-78
2023/05/27 09:12:05;;;;;;;7.45;4.18;;;;;;;26.09;44.19;101194.47;5039950;28;20456;-80
2023/05/27 09:14:31;;;;;;;8.38;4.20;;;;;;;26.21;44.12;101180.69;5045087;28;20410;-79
2023/05/27 09:17:05;;;;;;;7.25;4.10;;;;;;;26.32;43.51;101191.34;5059304;28;20448;-81
2023/05/27 09:19:30;;;;;;;8.50;4.15;;;;;;;26.38;43.27;101184.06;5043897;28;20393;-79
2023/05/27 09:21:56;;;;;;;9.03;3.97;;;;;;;26.58;43.51;101186.03;5043087;28;20389;-79
2023/05/27 09:24:26;;;;;;;7.90;4.00;;;;;;;26.73;42.99;101185.28;5025799;28;20390;-79
2023/05/27 09:26:52;;;;;;;9.68;4.22;;;;;;;26.67;43.16;101178.22;5040811;28;20394;-79
2023/05/27 09:29:19;;;;;;;7.90;4.17;;;;;;;26.61;42.84;101181.97;5042529;28;20412;-79
2023/05/27 09:31:45;;;;;;;11.73;4.40;;;;;;;26.23;43.49;101179.31;5042368;28;20473;-78
2023/05/27 09:34:15;;;;;;;6.97;3.95;;;;;;;26.45;43.67;101175.63;5039017;28;20472;-79
2023/05/27 09:36:51;;;;;;;10.27;4.30;;;;;;;26.28;43.46;101178.56;5042451;28;20434;-78
2023/05/27 09:39:22;;;;;;;15.30;4.80;;;;;;;26.41;43.50;101169.09;5040109;28;20389;-79
2023/05/27 09:41:55;;;;;;;10.38;4.32;;;;;;;26.27;43.92;101163.31;5040114;28;20405;-79
2023/05/27 09:44:27;;;;;;;8.00;4.05;;;;;;;26.37;44.21;101168.00;5031908;28;20745;-77
2023/05/27 09:46:54;;;;;;;7.75;4.30;;;;;;;26.41;44.25;101152.78;5044156;28;20443;-80
2023/05/27 09:49:20;;;;;;;9.20;4.43;;;;;;;26.95;43.76;101160.59;5045077;28;20777;-80
2023/05/27 09:51:47;;;;;;;8.02;3.70;;;;;;;26.54;43.40;101165.88;5044376;28;20411;-80
2023/05/27 09:54:18;;;;;;;8.00;3.92;;;;;;;26.18;43.58;101162.19;5044040;28;20926;-78
2023/05/27 09:56:45;;;;;;;8.30;4.15;;;;;;;26.26;43.54;101158.97;5027390;28;20471;-80
2023/05/27 09:59:11;;;;;;;9.95;4.32;;;;;;;26.46;43.85;101159.06;5033302;28;20782;-78
2023/05/27 10:01:38;;;;;;;9.88;4.47;;;;;;;26.67;43.49;101165.44;5029644;28;20959;-81
2023/05/27 10:04:04;;;;;;;8.25;4.25;;;;;;;26.72;43.23;101145.56;5025501;28;20481;-80
2023/05/27 10:06:32;;;;;;;8.13;3.93;;;;;;;26.58;43.44;101147.97;5026516;28;20388;-78
2023/05/27 10:08:57;;;;;;;10.05;4.45;;;;;;;26.79;43.13;101142.59;5040060;28;20420;-80
2023/05/27 10:11:23;;;;;;;9.73;3.97;;;;;;;26.47;42.75;101143.56;5024817;28;20930;-80
2023/05/27 10:13:50;;;;;;;7.93;3.83;;;;;;;26.65;42.79;101151.28;5026559;28;20419;-79
2023/05/27 10:16:21;;;;;;;10.37;4.30;;;;;;;26.85;42.78;101134.19;5029855;28;20398;-80
2023/05/27 10:18:52;;;;;;;9.30;4.10;;;;;;;27.01;42.21;101142.38;5018403;28;20403;-79
2023/05/27 10:21:22;;;;;;;10.13;3.88;;;;;;;26.45;40.78;101137.56;5024763;28;20739;-80
2023/05/27 10:23:58;;;;;;;6.60;3.60;;;;;;;26.59;41.76;101129.75;5025060;28;20412;-78
2023/05/27 10:26:38;;;;;;;10.07;3.80;;;;;;;26.64;40.99;101125.16;5022038;28;20400;-79
2023/05/27 10:29:07;;;;;;;7.60;3.50;;;;;;;26.44;42.34;101127.78;5035987;28;20398;-82
2023/05/27 10:31:33;;;;;;;7.63;3.78;;;;;;;26.80;41.94;101117.06;5025289;28;20918;-79
2023/05/27 10:33:59;;;;;;;6.72;3.35;;;;;;;27.27;41.17;101108.69;5029955;28;20392;-80
2023/05/27 10:36:31;;;;;;;7.27;4.00;;;;;;;27.21;42.21;101107.03;5043774;28;20392;-78
2023/05/27 10:39:00;;;;;;;9.07;4.25;;;;;;;27.24;42.28;101106.50;5039949;28;20394;-80
2023/05/27 10:41:26;;;;;;;7.97;4.10;;;;;;;27.23;42.21;101102.13;5063132;28;20456;-81
2023/05/27 10:43:59;;;;;;;8.68;3.83;;;;;;;27.32;42.06;101101.63;5056720;28;20427;-78
2023/05/27 10:46:25;;;;;;;7.53;4.07;;;;;;;27.42;41.83;101102.44;5052867;28;20405;-78
2023/05/27 10:48:51;;;;;;;6.90;3.95;;;;;;;27.57;41.81;101098.06;5032546;28;20422;-78
2023/05/27 10:51:17;;;;;;;8.13;3.95;;;;;;;27.29;42.26;101102.97;5047503;28;20883;-78
2023/05/27 10:53:42;;;;;;;9.15;4.20;;;;;;;27.32;42.53;101093.44;5051965;28;20414;-79
2023/05/27 10:56:08;;;;;;;8.43;4.30;;;;;;;27.33;42.69;101093.16;5033420;28;20382;-80
2023/05/27 10:58:38;;;;;;;6.97;3.72;;;;;;;27.27;42.27;101086.09;5053501;28;20380;-78
2023/05/27 11:01:14;;;;;;;9.43;4.55;;;;;;;27.02;42.61;101076.00;5047661;28;20389;-79
2023/05/27 11:03:44;;;;;;;9.43;4.35;;;;;;;26.86;42.28;101083.31;5046471;28;20412;-79
2023/05/27 11:06:11;;;;;;;8.90;4.10;;;;;;;26.98;42.50;101089.31;5050294;28;20415;-79
2023/05/27 11:08:37;;;;;;;9.80;3.90;;;;;;;27.18;41.69;101074.09;5041338;28;20860;-79
2023/05/27 11:11:07;;;;;;;10.05;4.53;;;;;;;27.19;41.68;101068.38;5045074;28;20408;-78
2023/05/27 11:13:34;;;;;;;8.32;3.78;;;;;;;27.13;40.48;101064.00;5029193;28;20461;-79
2023/05/27 11:16:01;;;;;;;6.53;3.50;;;;;;;27.25;40.46;101064.56;5017741;28;20856;-80
2023/05/27 11:18:41;;;;;;;8.52;4.20;;;;;;;27.41;40.22;101061.84;5011963;28;20485;-79
2023/05/27 11:21:08;;;;;;;9.18;4.07;;;;;;;27.64;39.85;101061.25;5030947;28;20421;-79
2023/05/27 11:23:56;;;;;;;6.70;3.80;;;;;;;27.75;40.06;101055.75;5031064;28;20820;-79